Time;durP1;ratioP1;P1;durP2;ratioP2;P2;SDS_P1;SDS_P2;PMS_P1;PMS_P2;Temp;Humidity;BMP_temperature;BMP_pressure;BME280_temperature;BME280_humidity;BME280_pressure;Samples;Min_cycle;Max_cycle;Signal;HPM_P1;HPM_P2
2023/03/30 00:01:48;;;;;;;10.13;8.67;;;;;;;10.26;81.85;100597.06;4961864;28;20437;-70
2023/03/30 00:04:21;;;;;;;11.30;8.70;;;;;;;10.29;81.81;100593.94;4966783;28;20413;-70
2023/03/30 00:06:52;;;;;;;12.77;9.63;;;;;;;10.01;82.86;100591.41;4966911;28;20453;-69
2023/03/30 00:09:21;;;;;;;10.50;8.33;;;;;;;9.94;83.41;100583.28;4968508;28;20221;-70
2023/03/30 00:11:50;;;;;;;12.47;9.03;;;;;;;9.87;84.11;100584.31;4962542;28;20452;-71
2023/03/30 00:14:22;;;;;;;10.80;8.27;;;;;;;9.85;84.68;100579.09;4967439;28;20416;-68
2023/03/30 00:16:52;;;;;;;11.00;8.73;;;;;;;9.87;84.51;100577.03;4960403;28;20833;-70
2023/03/30 00:19:21;;;;;;;12.80;9.03;;;;;;;9.72;85.13;100573.69;4961613;28;21100;-70
2023/03/30 00:21:52;;;;;;;10.20;8.10;;;;;;;9.86;84.95;100569.97;4961838;28;20408;-73
2023/03/30 00:24:21;;;;;;;10.27;8.23;;;;;;;9.96;84.43;100570.41;4963113;28;20440;-71
2023/03/30 00:26:50;;;;;;;11.00;9.20;;;;;;;10.03;83.96;100565.81;4952905;28;20841;-70
2023/03/30 00:29:19;;;;;;;12.10;8.88;;;;;;;10.08;83.90;100569.75;4957092;28;20454;-69
2023/03/30 00:31:49;;;;;;;10.33;7.40;;;;;;;10.13;84.19;100556.47;4965912;28;20199;-70
2023/03/30 00:34:19;;;;;;;9.90;8.73;;;;;;;9.92;84.85;100554.78;4964839;28;20825;-69
2023/03/30 00:36:52;;;;;;;12.17;8.57;;;;;;;9.92;85.39;100547.50;4964836;28;20991;-69
2023/03/30 00:39:21;;;;;;;14.30;9.23;;;;;;;9.90;85.92;100544.19;4956058;28;20459;-69
2023/03/30 00:41:51;;;;;;;9.63;8.63;;;;;;;10.01;85.29;100551.69;4957128;28;20453;-70
2023/03/30 00:44:56;;;;;;;10.70;8.30;;;;;;;9.95;85.52;100547.09;4959286;28;20567;-69
2023/03/30 00:47:26;;;;;;;7.55;6.22;;;;;;;9.83;86.92;100540.63;4952480;28;20439;-70
2023/03/30 00:49:55;;;;;;;11.77;8.20;;;;;;;9.91;86.67;100535.03;4980237;28;20226;-69
2023/03/30 00:52:26;;;;;;;8.82;7.78;;;;;;;9.82;87.59;100530.88;4956323;28;20229;-68
2023/03/30 00:54:57;;;;;;;13.00;8.90;;;;;;;9.66;87.81;100528.56;4961547;28;20269;-69
2023/03/30 00:57:27;;;;;;;9.13;7.55;;;;;;;9.79;87.41;100525.03;4953843;28;20187;-71
2023/03/30 00:59:57;;;;;;;7.43;6.50;;;;;;;10.01;87.13;100519.25;4956310;28;20227;-71
2023/03/30 01:02:29;;;;;;;8.43;7.32;;;;;;;9.92;86.88;100506.94;4958840;28;20202;-68
2023/03/30 01:04:58;;;;;;;13.85;8.07;;;;;;;9.89;87.06;100507.38;4961472;28;20194;-69
2023/03/30 01:07:28;;;;;;;9.05;7.85;;;;;;;9.71;88.48;100501.75;4958533;28;20206;-70
2023/03/30 01:09:58;;;;;;;9.43;8.23;;;;;;;9.86;88.46;100490.75;4956029;28;20192;-70
2023/03/30 01:12:28;;;;;;;11.98;8.50;;;;;;;9.77;88.66;100486.59;4955151;28;20450;-70
2023/03/30 01:14:57;;;;;;;12.82;8.15;;;;;;;9.78;88.72;100478.25;4956588;28;20190;-70
2023/03/30 01:17:32;;;;;;;9.68;7.25;;;;;;;9.69;89.02;100470.56;4960129;28;20203;-68
2023/03/30 01:20:55;;;;;;;9.52;8.32;;;;;;;9.76;89.79;100466.84;4953736;28;20406;-69
2023/03/30 01:24:07;;;;;;;8.90;6.90;;;;;;;9.60;90.61;100457.25;4922400;28;20234;-73
2023/03/30 01:26:54;;;;;;;8.65;7.75;;;;;;;9.73;89.68;100451.03;4954663;28;20503;-70
2023/03/30 01:29:38;;;;;;;8.13;7.30;;;;;;;9.76;90.07;100444.38;4954209;28;20732;-70
2023/03/30 01:32:38;;;;;;;8.38;7.55;;;;;;;9.62;90.68;100438.16;4954629;28;20604;-70
2023/03/30 01:35:31;;;;;;;13.38;7.50;;;;;;;9.66;90.95;100436.69;4957814;28;20190;-69
2023/03/30 01:38:26;;;;;;;8.65;7.78;;;;;;;9.58;91.75;100431.50;4957437;28;20339;-71
2023/03/30 01:41:05;;;;;;;13.43;8.50;;;;;;;9.63;91.76;100428.19;4956240;28;20197;-70
2023/03/30 01:43:39;;;;;;;7.93;7.23;;;;;;;9.74;91.46;100417.56;4956770;28;20478;-70
2023/03/30 01:46:14;;;;;;;9.45;7.78;;;;;;;9.73;91.67;100413.19;4950095;28;20495;-69
2023/03/30 01:48:49;;;;;;;8.67;7.73;;;;;;;9.88;91.41;100411.13;4947045;28;20215;-69
2023/03/30 01:51:23;;;;;;;8.38;7.65;;;;;;;9.82;91.45;100421.94;4959416;28;20505;-70
2023/03/30 01:53:58;;;;;;;8.63;7.73;;;;;;;9.65;91.67;100416.13;4951984;28;20223;-72
2023/03/30 01:56:35;;;;;;;10.83;7.83;;;;;;;9.73;91.54;100424.00;4951030;28;20481;-71
2023/03/30 01:59:10;;;;;;;11.80;8.23;;;;;;;9.74;90.79;100422.97;4956608;28;20460;-71
2023/03/30 02:01:49;;;;;;;11.68;9.25;;;;;;;9.62;91.43;100408.44;4952427;28;20413;-72
2023/03/30 02:04:23;;;;;;;9.77;8.77;;;;;;;9.64;91.73;100411.75;4958806;28;20276;-68
2023/03/30 02:06:58;;;;;;;9.57;8.50;;;;;;;9.51;91.79;100415.28;4959669;28;20199;-71
2023/03/30 02:09:29;;;;;;;9.47;8.07;;;;;;;9.68;91.96;100415.72;4966164;28;20510;-73
2023/03/30 02:12:02;;;;;;;9.10;7.88;;;;;;;9.79;91.64;100415.06;4961811;28;20553;-70
2023/03/30 02:14:38;;;;;;;10.03;8.97;;;;;;;9.69;90.81;100406.53;4963558;28;20218;-72
2023/03/30 02:17:13;;;;;;;11.60;9.40;;;;;;;9.58;91.70;100409.91;4958064;28;20993;-71
2023/03/30 02:19:44;;;;;;;11.50;8.45;;;;;;;9.64;91.26;100403.63;4966444;28;21215;-69
2023/03/30 02:22:15;;;;;;;9.13;7.90;;;;;;;9.56;91.76;100395.75;4954250;28;20199;-71
2023/03/30 02:24:47;;;;;;;9.55;8.57;;;;;;;9.46;92.17;100395.31;4949765;28;20216;-70
2023/03/30 02:27:21;;;;;;;10.90;9.20;;;;;;;9.51;92.36;100387.44;4960246;28;20644;-69
2023/03/30 02:29:51;;;;;;;8.68;7.70;;;;;;;9.42;92.08;100383.28;4948268;28;20206;-70
2023/03/30 02:32:25;;;;;;;11.43;8.90;;;;;;;9.55;91.35;100377.88;4953615;28;20214;-70
2023/03/30 02:35:15;;;;;;;10.60;7.82;;;;;;;9.61;90.96;100382.47;4955408;28;20206;-69
2023/03/30 02:38:14;;;;;;;9.25;8.32;;;;;;;9.53;90.90;100379.97;4952239;28;20213;-71
2023/03/30 02:40:51;;;;;;;8.88;7.75;;;;;;;9.46;92.13;100376.44;4960342;28;20203;-68
2023/03/30 02:43:44;;;;;;;10.15;9.07;;;;;;;9.39;91.98;100367.50;4958673;28;20264;-69
2023/03/30 02:46:30;;;;;;;11.10;8.43;;;;;;;9.41;92.39;100360.84;4952487;28;20213;-69
2023/03/30 02:49:12;;;;;;;10.27;8.48;;;;;;;9.45;91.56;100345.06;4956445;28;20644;-72
2023/03/30 02:51:49;;;;;;;8.85;7.95;;;;;;;9.55;91.12;100334.66;4952547;28;20228;-70
2023/03/30 02:54:44;;;;;;;9.20;8.23;;;;;;;9.57;91.76;100338.00;4954833;28;20288;-70
2023/03/30 02:57:30;;;;;;;12.43;9.00;;;;;;;9.52;91.17;100335.91;4952037;28;20244;-69
2023/03/30 03:00:28;;;;;;;7.60;6.72;;;;;;;9.52;91.57;100330.53;4950770;28;20206;-69
2023/03/30 03:03:05;;;;;;;10.73;6.90;;;;;;;9.41;92.11;100327.59;4970886;28;20208;-70
2023/03/30 03:05:35;;;;;;;12.48;7.85;;;;;;;9.71;91.33;100323.44;4957105;28;20206;-71
2023/03/30 03:08:14;;;;;;;12.70;8.70;;;;;;;9.70;90.81;100313.66;4947665;28;20649;-70
2023/03/30 03:10:45;;;;;;;9.35;7.60;;;;;;;9.46;91.71;100314.31;4957552;28;20500;-72
2023/03/30 03:13:15;;;;;;;11.33;7.87;;;;;;;9.49;92.09;100300.38;4946073;28;20214;-70
2023/03/30 03:15:48;;;;;;;11.23;8.83;;;;;;;9.53;92.44;100296.25;4953530;28;20457;-72
2023/03/30 03:18:17;;;;;;;8.27;7.57;;;;;;;9.61;92.24;100301.41;4953229;28;20470;-71
2023/03/30 03:20:46;;;;;;;8.30;7.45;;;;;;;9.75;91.91;100303.06;4953210;28;20199;-69
2023/03/30 03:23:16;;;;;;;13.37;9.40;;;;;;;9.74;91.31;100298.69;4955585;28;20210;-70
2023/03/30 03:25:49;;;;;;;10.27;7.30;;;;;;;9.51;92.18;100301.00;4954193;28;20421;-69
2023/03/30 03:28:21;;;;;;;8.93;6.30;;;;;;;9.56;92.64;100290.41;4954169;28;20441;-69
2023/03/30 03:30:58;;;;;;;8.48;7.68;;;;;;;9.74;91.83;100284.34;4949383;28;20760;-72
2023/03/30 03:33:29;;;;;;;8.17;7.20;;;;;;;9.63;92.13;100283.13;4957958;28;20209;-69
2023/03/30 03:36:19;;;;;;;8.83;7.63;;;;;;;9.65;92.12;100286.44;4958328;28;20463;-69
2023/03/30 03:38:52;;;;;;;14.63;7.80;;;;;;;9.57;92.60;100284.81;4957776;28;20479;-71
2023/03/30 03:41:21;;;;;;;8.40;7.60;;;;;;;9.64;91.93;100278.53;4961569;28;20458;-67
2023/03/30 03:43:50;;;;;;;9.93;7.55;;;;;;;9.67;91.65;100278.97;4951349;28;20527;-69
2023/03/30 03:46:21;;;;;;;9.43;7.43;;;;;;;9.68;91.93;100269.84;4955131;28;20202;-68
2023/03/30 03:48:50;;;;;;;8.93;8.00;;;;;;;9.60;91.81;100280.84;4953399;28;20214;-69
2023/03/30 03:51:19;;;;;;;8.50;7.53;;;;;;;9.60;91.70;100278.13;4954933;28;20438;-69
2023/03/30 03:53:48;;;;;;;10.57;7.85;;;;;;;9.59;92.02;100261.09;4949262;28;20196;-70
2023/03/30 03:56:17;;;;;;;11.02;8.10;;;;;;;9.42;93.08;100254.50;4953616;28;20578;-71
2023/03/30 03:58:47;;;;;;;9.75;8.75;;;;;;;9.59;92.62;100249.47;4953909;28;20255;-71
2023/03/30 04:01:16;;;;;;;9.70;8.13;;;;;;;9.56;91.84;100239.09;4959405;28;20197;-69
2023/03/30 04:03:46;;;;;;;9.93;8.77;;;;;;;9.53;92.91;100251.16;4958596;28;20805;-70
2023/03/30 04:06:17;;;;;;;9.30;8.37;;;;;;;9.58;92.09;100242.41;4954628;28;20210;-70
2023/03/30 04:08:46;;;;;;;14.10;8.48;;;;;;;9.64;91.83;100236.16;4950487;28;21013;-70
2023/03/30 04:11:29;;;;;;;9.68;8.55;;;;;;;9.58;92.33;100221.63;4947773;28;20306;-71
2023/03/30 04:14:10;;;;;;;12.07;8.43;;;;;;;9.69;91.83;100216.59;4957756;28;20207;-71
2023/03/30 04:17:05;;;;;;;8.30;6.90;;;;;;;9.76;91.90;100214.72;4951466;28;20497;-69
2023/03/30 04:19:44;;;;;;;10.98;8.43;;;;;;;9.73;91.37;100202.44;4957090;28;20472;-69
2023/03/30 04:22:24;;;;;;;8.70;7.78;;;;;;;9.75;91.90;100208.47;4960169;28;20583;-70
2023/03/30 04:25:24;;;;;;;11.03;8.47;;;;;;;9.76;90.88;100218.25;4954890;28;20210;-71
2023/03/30 04:28:13;;;;;;;14.10;8.55;;;;;;;9.81;91.51;100218.44;4952161;28;20431;-71
2023/03/30 04:30:49;;;;;;;10.63;8.77;;;;;;;9.82;91.17;100217.41;4953177;28;20253;-71
2023/03/30 04:33:43;;;;;;;11.45;9.57;;;;;;;9.83;90.96;100207.41;4953623;28;20213;-69
2023/03/30 04:36:42;;;;;;;15.03;9.30;;;;;;;9.84;91.05;100215.31;4955961;28;20209;-70
2023/03/30 04:39:42;;;;;;;23.52;9.40;;;;;;;9.87;90.69;100203.25;4956117;28;20817;-68
2023/03/30 04:42:33;;;;;;;14.00;9.63;;;;;;;9.90;90.55;100208.22;4952231;28;20207;-70
2023/03/30 04:45:24;;;;;;;9.23;8.10;;;;;;;9.85;90.94;100208.88;4958836;28;20245;-69
2023/03/30 04:48:08;;;;;;;12.20;9.95;;;;;;;9.74;91.50;100192.47;4958063;28;20539;-72
2023/03/30 04:51:13;;;;;;;12.13;7.65;;;;;;;9.99;90.77;100206.94;4934939;29;20214;-72
2023/03/30 04:53:46;;;;;;;17.00;13.13;;;;;;;9.90;90.69;100203.66;4946792;28;20264;-70
2023/03/30 04:56:38;;;;;;;12.23;8.52;;;;;;;9.80;90.98;100197.88;4962459;28;20411;-70
2023/03/30 04:59:30;;;;;;;10.88;8.30;;;;;;;9.78;91.27;100201.84;4933878;28;20233;-71
2023/03/30 05:02:37;;;;;;;10.35;8.13;;;;;;;9.87;91.12;100198.69;4925168;29;20709;-70
2023/03/30 05:05:19;;;;;;;9.70;8.15;;;;;;;9.75;91.22;100200.38;4911108;29;20229;-69
2023/03/30 05:08:08;;;;;;;14.07;8.33;;;;;;;9.68;91.77;100199.59;4948752;28;20237;-69
2023/03/30 05:10:59;;;;;;;15.00;10.50;;;;;;;9.57;92.64;100189.44;4950258;28;20404;-69
2023/03/30 05:14:04;;;;;;;12.35;9.18;;;;;;;9.58;92.36;100180.28;4943358;28;20519;-70
2023/03/30 05:16:59;;;;;;;10.50;7.72;;;;;;;9.69;91.64;100176.91;4957255;28;20216;-69
2023/03/30 05:19:36;;;;;;;11.60;8.70;;;;;;;9.79;91.57;100171.88;4949777;28;20661;-70
2023/03/30 05:22:24;;;;;;;9.10;8.20;;;;;;;9.88;90.90;100150.84;4953925;28;20947;-70
2023/03/30 05:25:11;;;;;;;12.57;8.07;;;;;;;9.93;90.22;100142.91;4976942;28;20616;-70
2023/03/30 05:27:56;;;;;;;11.40;8.10;;;;;;;9.96;89.66;100131.69;4953072;28;20841;-68
2023/03/30 05:30:46;;;;;;;9.10;8.20;;;;;;;10.04;89.25;100128.72;4954184;28;20439;-70
2023/03/30 05:33:42;;;;;;;10.60;8.70;;;;;;;9.99;89.77;100126.69;4948286;28;21025;-68
2023/03/30 05:36:40;;;;;;;11.70;7.87;;;;;;;9.96;89.47;100132.53;4948112;28;20425;-70
2023/03/30 05:39:18;;;;;;;11.00;7.70;;;;;;;10.09;88.45;100152.41;4954959;23;20471;-71
2023/03/30 05:42:12;;;;;;;8.63;7.70;;;;;;;10.08;88.54;100150.75;4892910;29;20460;-71
2023/03/30 05:45:03;;;;;;;8.20;7.22;;;;;;;9.92;89.14;100144.78;4899365;29;20439;-72
2023/03/30 05:47:52;;;;;;;11.23;7.50;;;;;;;10.02;88.93;100142.44;4905090;29;20271;-72
2023/03/30 05:50:47;;;;;;;11.20;7.13;;;;;;;10.11;88.33;100143.03;4907732;29;20448;-71
2023/03/30 05:53:29;;;;;;;10.85;7.63;;;;;;;9.99;88.48;100126.69;4899152;29;20212;-72
2023/03/30 05:56:17;;;;;;;9.30;7.37;;;;;;;9.91;89.01;100120.69;4898798;29;20229;-71
2023/03/30 05:58:57;;;;;;;9.80;7.60;;;;;;;10.10;88.17;100127.03;4900822;29;20434;-72
2023/03/30 06:01:49;;;;;;;11.90;7.40;;;;;;;9.96;88.69;100124.41;4901924;29;20452;-70
2023/03/30 06:04:18;;;;;;;10.00;7.22;;;;;;;9.97;88.64;100128.75;4900892;29;20445;-71
2023/03/30 06:06:48;;;;;;;12.00;8.90;;;;;;;10.01;88.52;100121.91;4899450;29;20205;-71
2023/03/30 06:09:17;;;;;;;17.83;8.27;;;;;;;9.96;88.28;100110.91;4900168;29;20468;-73
2023/03/30 06:11:46;;;;;;;9.20;7.27;;;;;;;9.96;88.47;100102.78;4905985;29;20423;-72
2023/03/30 06:14:21;;;;;;;8.53;7.20;;;;;;;10.15;87.82;100102.88;4907697;29;20749;-70
2023/03/30 06:17:18;;;;;;;8.77;7.40;;;;;;;10.25;86.95;100100.56;4901885;29;20424;-72
2023/03/30 06:19:47;;;;;;;11.60;7.90;;;;;;;10.37;86.52;100096.91;4906905;29;20456;-72
2023/03/30 06:22:17;;;;;;;10.60;8.47;;;;;;;10.36;86.37;100092.53;4906345;29;20986;-72
2023/03/30 06:24:57;;;;;;;7.53;6.30;;;;;;;10.36;85.83;100089.03;4915532;29;20808;-72
2023/03/30 06:27:30;;;;;;;13.63;7.20;;;;;;;10.43;85.52;100093.31;4907136;29;20434;-70
2023/03/30 06:30:00;;;;;;;10.20;7.10;;;;;;;10.67;84.51;100102.50;4899973;29;20803;-71
2023/03/30 06:32:34;;;;;;;9.67;6.67;;;;;;;10.84;84.18;100092.75;4912828;29;20453;-71
2023/03/30 06:35:24;;;;;;;13.53;7.23;;;;;;;10.96;82.75;100078.47;4911662;29;20419;-70
2023/03/30 06:37:55;;;;;;;13.57;7.10;;;;;;;11.03;82.25;100082.78;4910424;29;20457;-71
2023/03/30 06:40:25;;;;;;;10.90;6.87;;;;;;;11.28;81.64;100109.75;4907610;29;20470;-71
2023/03/30 06:42:55;;;;;;;10.80;7.00;;;;;;;11.16;81.94;100096.16;4902015;29;20481;-70
2023/03/30 06:45:37;;;;;;;8.53;6.50;;;;;;;11.23;81.20;100099.63;4899827;29;20432;-72
2023/03/30 06:48:07;;;;;;;9.10;8.10;;;;;;;11.34;81.17;100108.88;4906911;29;20432;-72
2023/03/30 06:50:40;;;;;;;10.03;7.23;;;;;;;11.12;81.49;100094.97;4898613;29;20917;-71
2023/03/30 06:53:25;;;;;;;7.57;6.73;;;;;;;10.92;81.83;100088.94;4913313;29;20537;-71
2023/03/30 06:55:56;;;;;;;6.77;6.07;;;;;;;11.00;82.32;100085.09;4904233;29;20958;-72
2023/03/30 06:58:27;;;;;;;10.90;7.67;;;;;;;10.87;82.95;100076.06;4895621;29;21049;-70
2023/03/30 07:00:57;;;;;;;10.53;7.50;;;;;;;10.90;83.39;100075.59;4900339;29;20464;-71
2023/03/30 07:03:33;;;;;;;7.60;6.67;;;;;;;11.20;81.98;100083.00;4906249;29;20451;-72
2023/03/30 07:06:21;;;;;;;7.67;6.97;;;;;;;11.41;81.03;100077.13;4912619;29;20455;-72
2023/03/30 07:08:50;;;;;;;8.63;7.57;;;;;;;11.23;81.13;100075.25;4902715;29;21002;-70
2023/03/30 07:11:23;;;;;;;13.07;6.83;;;;;;;11.04;81.56;100068.16;4919426;29;20457;-70
2023/03/30 07:13:55;;;;;;;9.10;7.33;;;;;;;11.18;81.61;100066.16;4908575;29;20457;-70
2023/03/30 07:16:24;;;;;;;8.57;6.60;;;;;;;11.39;81.10;100052.13;4913323;29;20413;-70
2023/03/30 07:18:55;;;;;;;7.20;6.40;;;;;;;11.77;80.13;100054.56;4909627;29;21160;-71
2023/03/30 07:21:25;;;;;;;6.90;6.20;;;;;;;12.05;78.30;100059.41;4910563;29;20512;-71
2023/03/30 07:23:55;;;;;;;12.23;7.57;;;;;;;12.41;77.00;100061.94;4918367;29;20428;-71
2023/03/30 07:26:32;;;;;;;13.00;9.60;;;;;;;12.91;75.19;100058.75;4908606;29;20427;-71
2023/03/30 07:29:07;;;;;;;13.73;7.10;;;;;;;13.02;74.00;100053.28;4911071;29;20453;-71
2023/03/30 07:31:42;;;;;;;8.43;7.00;;;;;;;13.27;72.45;100055.75;4907484;29;20423;-71
2023/03/30 07:34:17;;;;;;;9.80;6.50;;;;;;;13.38;72.20;100041.34;4911164;29;20534;-70
2023/03/30 07:36:52;;;;;;;7.87;5.87;;;;;;;13.47;71.38;100031.72;4925501;29;20438;-71
2023/03/30 07:39:25;;;;;;;9.60;7.40;;;;;;;13.50;71.10;100033.16;4906446;29;20482;-70
2023/03/30 07:41:54;;;;;;;6.80;6.10;;;;;;;13.56;70.75;100028.63;4911439;29;20441;-72
2023/03/30 07:44:27;;;;;;;10.07;6.97;;;;;;;13.61;70.50;100034.16;4899463;29;20723;-71
2023/03/30 07:47:03;;;;;;;8.03;7.23;;;;;;;13.66;69.66;100031.53;4898696;29;20441;-70
2023/03/30 07:49:34;;;;;;;7.60;6.70;;;;;;;13.86;69.01;100032.75;4899309;29;20477;-69
2023/03/30 07:52:03;;;;;;;10.53;7.13;;;;;;;14.10;67.91;100028.00;4892993;29;20473;-71
2023/03/30 07:54:56;;;;;;;9.00;5.70;;;;;;;14.20;67.80;100021.88;4894806;29;20487;-72
2023/03/30 07:57:35;;;;;;;9.10;5.87;;;;;;;14.23;67.59;100016.78;4897038;29;20454;-70
2023/03/30 08:00:07;;;;;;;6.67;5.97;;;;;;;14.12;67.11;100022.31;4895860;29;20418;-70
2023/03/30 08:03:04;;;;;;;10.23;6.17;;;;;;;14.14;67.57;100023.69;4899792;29;20429;-70
2023/03/30 08:05:35;;;;;;;8.77;6.20;;;;;;;14.29;66.46;100031.28;4902214;29;20515;-70
2023/03/30 08:08:12;;;;;;;8.70;6.40;;;;;;;14.40;66.11;100032.31;4889230;29;20473;-69
2023/03/30 08:10:41;;;;;;;10.37;5.80;;;;;;;14.06;66.60;100026.84;4896371;29;20434;-70
2023/03/30 08:13:11;;;;;;;4.77;3.97;;;;;;;14.10;66.78;100016.28;4901950;29;20479;-70
2023/03/30 08:15:41;;;;;;;6.43;5.13;;;;;;;14.23;66.42;100022.22;4899627;29;20504;-70
2023/03/30 08:18:11;;;;;;;6.53;5.77;;;;;;;14.15;66.85;100013.66;4896795;29;20481;-71
2023/03/30 08:20:43;;;;;;;7.37;5.90;;;;;;;14.36;66.30;100021.13;4903818;29;20509;-70
2023/03/30 08:23:12;;;;;;;7.07;5.27;;;;;;;14.25;66.26;100017.38;4902079;29;20422;-71
2023/03/30 08:25:41;;;;;;;10.17;5.77;;;;;;;14.51;65.90;100013.19;4903855;29;20443;-69
2023/03/30 08:28:14;;;;;;;11.33;5.80;;;;;;;14.72;65.40;100003.41;4898695;29;20441;-72
2023/03/30 08:30:44;;;;;;;8.67;5.20;;;;;;;14.99;63.68;99998.88;4899498;29;20483;-72
2023/03/30 08:33:13;;;;;;;5.63;5.00;;;;;;;15.25;62.76;99991.03;4898717;29;20414;-70
2023/03/30 08:35:47;;;;;;;12.37;7.57;;;;;;;15.49;61.86;99995.13;4907331;29;20469;-71
2023/03/30 08:38:18;;;;;;;7.60;5.47;;;;;;;15.35;61.92;99985.69;4897967;29;20530;-72
2023/03/30 08:40:49;;;;;;;6.43;5.13;;;;;;;15.39;62.12;99982.22;4899093;29;20435;-70
2023/03/30 08:43:44;;;;;;;7.67;5.10;;;;;;;15.45;61.56;99985.78;4893341;29;20430;-73
2023/03/30 08:46:16;;;;;;;8.70;4.83;;;;;;;15.67;61.78;99989.34;4891484;29;20462;-72
2023/03/30 08:48:46;;;;;;;9.63;5.10;;;;;;;15.85;60.75;99988.97;4899357;29;20430;-72
2023/03/30 08:51:23;;;;;;;14.90;5.37;;;;;;;15.99;60.20;99998.38;4897024;29;20500;-71
2023/03/30 08:53:56;;;;;;;7.60;5.27;;;;;;;16.16;59.46;99981.06;4899749;29;20414;-72
2023/03/30 08:56:29;;;;;;;9.80;5.13;;;;;;;16.37;58.78;99978.22;4901070;29;20468;-71
2023/03/30 08:59:14;;;;;;;4.90;4.10;;;;;;;16.76;57.74;99973.31;4910310;29;20462;-71
2023/03/30 09:01:49;;;;;;;7.00;3.97;;;;;;;17.18;56.53;99973.25;4920704;29;20447;-71
2023/03/30 09:04:27;;;;;;;5.23;3.30;;;;;;;17.34;54.90;99966.72;4902338;29;20449;-72
2023/03/30 09:07:03;;;;;;;6.07;3.40;;;;;;;17.50;54.16;99978.53;4910382;29;20409;-71
2023/03/30 09:09:37;;;;;;;4.50;3.37;;;;;;;17.83;53.66;99979.16;4912910;29;20439;-71
2023/03/30 09:12:13;;;;;;;8.00;3.47;;;;;;;17.79;53.45;99974.25;4914437;29;20416;-70
2023/03/30 09:14:46;;;;;;;9.77;4.90;;;;;;;17.77;53.47;99975.59;4917301;29;20648;-70
2023/03/30 09:17:20;;;;;;;5.23;3.73;;;;;;;17.65;53.64;99970.41;4905810;29;20424;-71
2023/03/30 09:19:55;;;;;;;4.60;3.27;;;;;;;17.88;53.51;99970.97;4926248;29;20440;-70
2023/03/30 09:22:35;;;;;;;7.63;3.17;;;;;;;17.83;52.86;99965.50;4919155;29;20433;-71
2023/03/30 09:25:17;;;;;;;5.73;3.37;;;;;;;17.72;52.47;99957.25;4930978;29;21007;-72
2023/03/30 09:27:58;;;;;;;7.13;3.00;;;;;;;17.87;52.06;99961.09;4913505;29;20458;-70
2023/03/30 09:30:39;;;;;;;7.33;4.00;;;;;;;18.10;52.08;99968.81;4920921;29;20501;-70
2023/03/30 09:33:16;;;;;;;6.03;3.30;;;;;;;17.93;51.66;99969.06;4917760;29;20471;-70
2023/03/30 09:35:59;;;;;;;3.53;2.63;;;;;;;17.96;51.92;99959.50;4911301;29;20478;-70
2023/03/30 09:38:31;;;;;;;6.40;4.53;;;;;;;18.14;51.90;99957.03;4908708;29;20477;-70
2023/03/30 09:41:11;;;;;;;4.70;2.83;;;;;;;18.25;51.68;99966.88;4914142;29;20417;-71
2023/03/30 09:43:45;;;;;;;4.30;2.90;;;;;;;18.47;51.30;99979.44;4905916;29;20605;-71
2023/03/30 09:46:16;;;;;;;5.13;2.83;;;;;;;18.21;51.31;99970.44;4902870;29;20516;-71
2023/03/30 09:48:47;;;;;;;15.10;3.80;;;;;;;17.91;51.66;99975.91;4899708;29;20454;-70
2023/03/30 09:51:22;;;;;;;5.07;3.13;;;;;;;18.09;51.88;99967.97;4902780;29;20441;-71
2023/03/30 09:53:58;;;;;;;9.30;2.90;;;;;;;18.44;51.33;99967.16;4901635;29;20433;-70
2023/03/30 09:56:34;;;;;;;4.83;3.23;;;;;;;18.22;51.06;99964.69;4894133;29;20473;-71
2023/03/30 09:59:22;;;;;;;11.40;3.53;;;;;;;18.32;51.44;99966.59;4899120;29;20949;-70
2023/03/30 10:01:51;;;;;;;7.00;3.87;;;;;;;18.49;51.19;99975.31;4895123;29;20495;-71
2023/03/30 10:04:20;;;;;;;4.20;2.50;;;;;;;18.35;51.17;99971.50;4896652;29;20514;-71
2023/03/30 10:06:50;;;;;;;3.50;2.53;;;;;;;18.06;51.54;99982.19;4900973;29;20464;-70
2023/03/30 10:09:23;;;;;;;3.60;2.63;;;;;;;18.08;52.20;99982.75;4900508;29;20799;-70
2023/03/30 10:11:55;;;;;;;5.50;2.60;;;;;;;18.09;52.17;99978.94;4902391;29;20467;-70
2023/03/30 10:14:31;;;;;;;5.20;3.40;;;;;;;17.92;52.71;99978.34;4896839;29;20463;-70
2023/03/30 10:17:02;;;;;;;7.63;2.63;;;;;;;17.70;53.06;99981.34;4897133;29;20498;-70
2023/03/30 10:19:32;;;;;;;3.57;2.73;;;;;;;17.72;53.27;99990.09;4904448;29;20456;-71
2023/03/30 10:22:16;;;;;;;4.80;2.57;;;;;;;17.83;52.87;99987.38;4898947;29;20415;-71
2023/03/30 10:24:53;;;;;;;7.10;3.13;;;;;;;17.83;53.35;99985.47;4891686;29;20931;-70
2023/03/30 10:27:32;;;;;;;7.10;2.60;;;;;;;17.53;54.08;99988.94;4901073;29;20453;-70
2023/03/30 10:30:10;;;;;;;3.00;2.07;;;;;;;17.51;54.19;99982.94;4900738;29;20490;-70
2023/03/30 10:32:44;;;;;;;8.43;3.73;;;;;;;17.61;54.45;99995.84;4894550;29;21526;-70
2023/03/30 10:35:20;;;;;;;9.53;3.77;;;;;;;17.62;54.62;99992.81;4893426;29;20460;-70
2023/03/30 10:37:52;;;;;;;7.93;3.90;;;;;;;17.85;54.44;99993.41;4891533;29;20523;-72
2023/03/30 10:40:27;;;;;;;4.93;2.63;;;;;;;17.71;53.93;99972.06;4899247;29;20408;-70
2023/03/30 10:42:59;;;;;;;8.43;3.27;;;;;;;17.60;54.40;99975.88;4893000;29;20522;-71
2023/03/30 10:45:37;;;;;;;10.90;3.57;;;;;;;17.95;53.90;99969.63;4899903;29;20520;-71
2023/03/30 10:48:27;;;;;;;8.00;3.60;;;;;;;18.08;53.65;99976.47;4898417;29;20463;-72
2023/03/30 10:51:05;;;;;;;4.93;2.93;;;;;;;18.50;53.09;99974.22;4904015;29;20453;-71
2023/03/30 10:53:43;;;;;;;8.27;3.10;;;;;;;18.14;53.37;99969.91;4894754;29;20552;-71
2023/03/30 10:56:26;;;;;;;3.43;2.97;;;;;;;17.97;54.11;99959.19;4896463;29;20480;-70
2023/03/30 10:59:35;;;;;;;11.60;3.03;;;;;;;18.22;53.67;99955.66;4894695;29;20470;-71
2023/03/30 11:02:25;;;;;;;6.03;4.27;;;;;;;18.28;53.82;99957.28;4890738;29;20610;-71
2023/03/30 11:05:02;;;;;;;9.40;6.33;;;;;;;18.62;53.10;99950.16;4898535;29;20446;-71
2023/03/30 11:07:38;;;;;;;9.27;4.83;;;;;;;18.49;52.88;99958.88;4894016;29;20449;-71
2023/03/30 11:10:15;;;;;;;7.93;5.23;;;;;;;18.53;53.04;99962.78;4897762;29;20416;-71
2023/03/30 11:12:49;;;;;;;7.50;4.23;;;;;;;18.55;53.17;99957.81;4896664;29;20452;-70
2023/03/30 11:15:26;;;;;;;10.00;4.53;;;;;;;18.79;52.91;99955.28;4894194;29;20445;-70
2023/03/30 11:18:03;;;;;;;5.57;3.17;;;;;;;18.86;52.69;99955.81;4893359;29;20519;-70
2023/03/30 11:20:35;;;;;;;7.87;3.07;;;;;;;18.74;52.43;99946.25;4895905;29;20487;-72
2023/03/30 11:23:13;;;;;;;12.40;3.40;;;;;;;18.79;52.63;99954.47;4892004;29;20508;-71
2023/03/30 11:25:52;;;;;;;4.03;2.70;;;;;;;18.77;53.03;99948.47;4895222;29;20418;-71
2023/03/30 11:28:49;;;;;;;7.27;3.60;;;;;;;18.99;52.83;99951.66;4897661;29;20548;-69
2023/03/30 11:31:38;;;;;;;9.70;3.43;;;;;;;18.84;52.87;99946.22;4895808;29;20972;-71
2023/03/30 11:34:19;;;;;;;9.00;2.90;;;;;;;18.61;53.82;99944.94;4904490;29;20418;-70
2023/03/30 11:36:58;;;;;;;4.63;4.23;;;;;;;18.44;54.33;99942.50;4892767;29;20890;-70
2023/03/30 11:39:32;;;;;;;10.33;3.13;;;;;;;18.23;54.82;99938.13;4973603;23;20497;-68
2023/03/30 11:42:13;;;;;;;5.83;2.60;;;;;;;18.30;55.00;99935.13;4955626;28;20440;-69
2023/03/30 11:44:44;;;;;;;5.07;3.90;;;;;;;18.20;55.62;99930.47;4955880;28;20427;-69
2023/03/30 11:47:30;;;;;;;7.63;3.60;;;;;;;18.54;54.79;99926.03;4954168;28;20434;-68
2023/03/30 11:50:17;;;;;;;5.30;3.47;;;;;;;18.66;54.01;99915.59;4930575;29;20418;-68
2023/03/30 11:52:57;;;;;;;10.17;3.20;;;;;;;18.50;54.94;99915.88;4931796;29;20774;-68
2023/03/30 11:55:41;;;;;;;7.70;3.80;;;;;;;18.46;55.12;99912.88;4935950;29;20982;-72
2023/03/30 11:58:20;;;;;;;9.63;3.30;;;;;;;18.72;54.84;99904.63;4938086;29;21473;-68
2023/03/30 12:01:02;;;;;;;10.03;4.77;;;;;;;18.80;54.50;99902.13;4926940;29;20488;-68
2023/03/30 12:03:42;;;;;;;8.40;3.40;;;;;;;18.71;55.09;99909.28;4935085;29;20442;-69
2023/03/30 12:06:26;;;;;;;11.23;4.03;;;;;;;18.63;55.34;99907.13;4938791;29;20467;-72
2023/03/30 12:09:28;;;;;;;6.00;3.47;;;;;;;18.64;55.40;99886.81;4934736;29;20492;-69
2023/03/30 12:12:05;;;;;;;7.23;3.33;;;;;;;18.94;55.09;99880.41;4928952;29;20458;-71
2023/03/30 12:14:46;;;;;;;6.10;3.17;;;;;;;19.30;54.16;99879.13;4935657;29;20847;-68
2023/03/30 12:17:29;;;;;;;6.63;3.50;;;;;;;19.07;54.14;99880.59;4931641;28;20556;-69
2023/03/30 12:20:03;;;;;;;6.37;3.80;;;;;;;19.02;54.72;99864.22;4938431;29;20453;-69